Time;durP1;ratioP1;P1;durP2;ratioP2;P2;SDS_P1;SDS_P2;PMS_P1;PMS_P2;Temp;Humidity;BMP_temperature;BMP_pressure;BME280_temperature;BME280_humidity;BME280_pressure;Samples;Min_cycle;Max_cycle;Signal;HPM_P1;HPM_P2
2021/11/11 00:00:23;;;;;;;4.27;3.10;;;21.80;54.30;;;;;;5049620;28;20179;-76
2021/11/11 00:02:49;;;;;;;3.40;3.10;;;21.80;54.30;;;;;;5048982;28;20436;-76
2021/11/11 00:05:15;;;;;;;3.70;3.30;;;21.80;54.30;;;;;;5049058;28;20418;-76
2021/11/11 00:07:41;;;;;;;4.67;3.27;;;21.80;54.30;;;;;;5031891;28;20446;-76
2021/11/11 00:10:09;;;;;;;4.80;3.93;;;21.80;54.30;;;;;;5054265;28;20470;-75
2021/11/11 00:12:35;;;;;;;3.77;2.90;;;21.80;54.40;;;;;;5037070;28;20401;-75
2021/11/11 00:15:06;;;;;;;4.63;3.80;;;21.80;54.30;;;;;;5054062;28;20434;-75
2021/11/11 00:17:32;;;;;;;3.80;3.40;;;21.80;54.40;;;;;;5054418;28;20473;-75
2021/11/11 00:19:58;;;;;;;3.37;3.07;;;21.80;54.40;;;;;;5034248;28;20450;-75
2021/11/11 00:22:24;;;;;;;3.50;3.03;;;21.80;54.40;;;;;;5036722;28;20446;-75
2021/11/11 00:24:50;;;;;;;4.80;3.20;;;21.80;54.40;;;;;;5053240;28;20179;-76
2021/11/11 00:27:16;;;;;;;4.50;4.10;;;21.80;54.40;;;;;;5037397;28;20175;-75
2021/11/11 00:29:42;;;;;;;3.63;3.30;;;21.80;54.40;;;;;;5052485;28;20398;-76
2021/11/11 00:32:08;;;;;;;3.60;3.30;;;21.80;54.40;;;;;;5028687;28;20183;-75
2021/11/11 00:34:34;;;;;;;3.50;2.80;;;21.80;54.40;;;;;;5036418;28;20180;-75
2021/11/11 00:37:00;;;;;;;4.40;3.80;;;21.80;54.40;;;;;;5054243;28;20425;-75
2021/11/11 00:39:26;;;;;;;3.80;3.00;;;21.70;54.40;;;;;;5057432;28;20160;-75
2021/11/11 00:41:51;;;;;;;3.07;2.80;;;21.70;54.40;;;;;;5041150;28;20462;-75
2021/11/11 00:44:17;;;;;;;3.90;3.20;;;21.70;54.40;;;;;;5039339;28;20470;-75
2021/11/11 00:46:43;;;;;;;3.73;3.27;;;21.70;54.40;;;;;;5040439;28;20180;-75
2021/11/11 00:49:09;;;;;;;3.50;3.20;;;21.70;54.40;;;;;;5041373;28;20441;-75
2021/11/11 00:51:36;;;;;;;4.33;3.47;;;21.70;54.40;;;;;;5041797;28;20152;-76
2021/11/11 00:54:02;;;;;;;3.80;3.20;;;21.70;54.40;;;;;;5042956;28;20166;-75
2021/11/11 00:56:29;;;;;;;3.73;3.20;;;21.70;54.50;;;;;;5045300;28;20418;-75
2021/11/11 00:58:55;;;;;;;3.30;3.00;;;21.70;54.50;;;;;;5062187;28;20395;-75
2021/11/11 01:01:21;;;;;;;2.97;2.67;;;21.70;54.50;;;;;;5062146;28;20454;-76
2021/11/11 01:03:51;;;;;;;3.30;3.00;;;21.70;54.50;;;;;;5062294;28;20429;-75
2021/11/11 01:06:17;;;;;;;4.03;2.60;;;21.70;54.50;;;;;;5062082;28;20418;-75
2021/11/11 01:08:43;;;;;;;4.20;3.00;;;21.70;54.50;;;;;;5045072;28;20449;-75
2021/11/11 01:11:10;;;;;;;3.30;2.87;;;21.70;54.50;;;;;;5044966;28;20494;-75
2021/11/11 01:13:36;;;;;;;3.97;3.33;;;21.70;54.50;;;;;;5044906;28;20485;-76
2021/11/11 01:16:03;;;;;;;7.10;3.20;;;21.70;54.50;;;;;;5044707;28;20422;-75
2021/11/11 01:18:29;;;;;;;3.73;3.43;;;21.70;54.50;;;;;;5061694;28;20449;-76
2021/11/11 01:20:55;;;;;;;2.97;2.67;;;21.70;54.50;;;;;;5044709;28;20541;-75
2021/11/11 01:23:21;;;;;;;2.80;2.60;;;21.70;54.50;;;;;;5061445;28;20182;-75
2021/11/11 01:25:47;;;;;;;3.27;2.97;;;21.70;54.50;;;;;;5061572;28;20421;-75
2021/11/11 01:28:13;;;;;;;3.70;2.87;;;21.70;54.50;;;;;;5043731;28;20426;-76
2021/11/11 01:30:41;;;;;;;3.50;2.90;;;21.70;54.50;;;;;;5043182;28;20232;-76
2021/11/11 01:33:08;;;;;;;2.50;2.30;;;21.70;54.50;;;;;;5061065;28;20231;-75
2021/11/11 01:35:34;;;;;;;4.17;3.73;;;21.70;54.50;;;;;;5043186;28;20444;-76
2021/11/11 01:38:00;;;;;;;3.03;2.73;;;21.70;54.50;;;;;;5059618;28;20430;-76
2021/11/11 01:40:26;;;;;;;4.43;3.10;;;21.70;54.50;;;;;;5060574;28;20458;-76
2021/11/11 01:42:58;;;;;;;3.87;3.47;;;21.70;54.60;;;;;;5043048;28;20163;-76
2021/11/11 01:45:31;;;;;;;4.03;3.63;;;21.70;54.60;;;;;;5042164;28;20509;-76
2021/11/11 01:47:57;;;;;;;3.60;3.10;;;21.70;54.60;;;;;;5043383;28;20421;-75
2021/11/11 01:50:24;;;;;;;3.90;3.03;;;21.60;54.50;;;;;;5044139;28;20391;-75
2021/11/11 01:52:50;;;;;;;3.13;2.70;;;21.60;54.50;;;;;;5043767;28;20426;-75
2021/11/11 01:55:17;;;;;;;3.53;3.23;;;21.60;54.50;;;;;;5060999;28;20402;-75
2021/11/11 01:57:43;;;;;;;3.03;2.73;;;21.70;54.60;;;;;;5060987;28;20406;-75
2021/11/11 02:00:16;;;;;;;3.47;2.90;;;21.60;54.50;;;;;;5060851;28;20409;-76
2021/11/11 02:02:42;;;;;;;3.00;2.70;;;21.60;54.50;;;;;;5060885;28;20506;-75
2021/11/11 02:05:08;;;;;;;3.10;2.80;;;21.60;54.50;;;;;;5042551;28;20438;-75
2021/11/11 02:07:34;;;;;;;3.40;3.10;;;21.60;54.50;;;;;;5060983;28;20407;-75
2021/11/11 02:10:00;;;;;;;3.33;2.50;;;21.60;54.50;;;;;;5060938;28;20168;-76
2021/11/11 02:12:30;;;;;;;3.53;2.90;;;21.60;54.50;;;;;;5043460;28;20417;-76
2021/11/11 02:14:57;;;;;;;2.90;2.60;;;21.60;54.50;;;;;;5061090;28;20158;-75
2021/11/11 02:17:29;;;;;;;3.90;2.60;;;21.60;54.50;;;;;;5043558;28;20434;-76
2021/11/11 02:20:11;;;;;;;4.07;3.60;;;21.60;54.60;;;;;;5060513;28;20427;-76
2021/11/11 02:22:37;;;;;;;4.00;3.30;;;21.60;54.60;;;;;;5043392;28;20418;-75
2021/11/11 02:25:15;;;;;;;2.63;2.40;;;21.60;54.60;;;;;;5043260;28;20394;-76
2021/11/11 02:27:41;;;;;;;2.93;2.60;;;21.60;54.60;;;;;;5042952;28;20494;-75
2021/11/11 02:30:09;;;;;;;3.60;2.83;;;21.60;54.60;;;;;;5058467;28;20455;-76
2021/11/11 02:32:36;;;;;;;3.70;2.77;;;21.60;54.60;;;;;;5059694;28;20409;-76
2021/11/11 02:35:04;;;;;;;3.70;3.20;;;21.60;54.60;;;;;;5059798;28;20423;-75
2021/11/11 02:37:31;;;;;;;3.53;2.70;;;21.60;54.60;;;;;;5059001;28;20423;-76
2021/11/11 02:39:59;;;;;;;3.67;2.97;;;21.60;55.20;;;;;;5058807;28;20468;-74
2021/11/11 02:42:27;;;;;;;5.23;3.10;;;21.60;54.60;;;;;;5057103;28;20454;-75
2021/11/11 02:48:17;;;;;;;3.23;2.93;;;21.60;54.60;;;;;;5056732;28;20461;-76
2021/11/11 02:50:44;;;;;;;3.77;3.13;;;21.50;54.60;;;;;;5058957;28;20421;-75
2021/11/11 02:53:13;;;;;;;3.57;2.90;;;21.50;54.60;;;;;;5059968;28;20425;-76
2021/11/11 02:55:39;;;;;;;3.93;2.83;;;21.50;54.60;;;;;;5042991;28;20433;-75
2021/11/11 02:58:06;;;;;;;3.40;3.10;;;21.50;54.60;;;;;;5042825;28;20422;-75
2021/11/11 03:00:42;;;;;;;4.20;3.17;;;21.50;54.60;;;;;;5058746;28;20280;-75
2021/11/11 03:03:08;;;;;;;3.33;2.80;;;21.50;54.60;;;;;;5059399;28;20410;-76
2021/11/11 03:05:35;;;;;;;3.33;2.47;;;21.50;54.60;;;;;;5059658;28;20415;-76
2021/11/11 03:08:05;;;;;;;3.60;2.57;;;21.50;54.60;;;;;;5059288;28;20442;-76
2021/11/11 03:10:33;;;;;;;4.47;3.00;;;21.50;54.60;;;;;;5059425;28;20418;-75
2021/11/11 03:12:59;;;;;;;2.90;2.70;;;21.60;54.60;;;;;;5059685;28;20417;-76
2021/11/11 03:15:27;;;;;;;3.27;2.97;;;21.50;54.60;;;;;;5059010;28;20410;-75
2021/11/11 03:17:54;;;;;;;5.20;3.10;;;21.60;54.60;;;;;;5059199;28;20406;-76
2021/11/11 03:20:20;;;;;;;4.87;2.80;;;21.60;54.60;;;;;;5042256;28;20419;-75
2021/11/11 03:22:47;;;;;;;3.80;3.43;;;21.60;54.60;;;;;;5042206;28;20418;-76
2021/11/11 03:25:16;;;;;;;3.33;3.03;;;21.60;54.60;;;;;;5059347;28;20418;-76
2021/11/11 03:27:41;;;;;;;2.87;2.30;;;21.60;54.60;;;;;;5042224;28;20402;-76
2021/11/11 03:30:10;;;;;;;3.43;2.70;;;21.60;54.60;;;;;;5041768;28;20460;-76
2021/11/11 03:32:36;;;;;;;4.23;3.23;;;21.60;54.60;;;;;;5040794;28;20265;-76
2021/11/11 03:35:03;;;;;;;3.93;3.63;;;21.60;54.60;;;;;;5041162;28;20410;-75
2021/11/11 03:37:28;;;;;;;4.03;3.00;;;21.60;54.60;;;;;;5058802;28;20199;-76
2021/11/11 03:39:54;;;;;;;3.43;3.10;;;21.60;54.60;;;;;;5057420;28;20415;-76
2021/11/11 03:42:20;;;;;;;3.13;2.83;;;21.60;54.60;;;;;;5058086;28;20216;-76
2021/11/11 03:44:46;;;;;;;3.03;2.73;;;21.60;54.60;;;;;;5041682;28;20182;-76
2021/11/11 03:47:12;;;;;;;3.53;2.80;;;21.60;54.60;;;;;;5040345;28;20180;-76
2021/11/11 03:49:39;;;;;;;3.20;3.00;;;21.50;54.60;;;;;;5058163;28;20431;-76
2021/11/11 03:52:06;;;;;;;2.83;2.63;;;21.50;54.60;;;;;;5058736;28;20172;-76
2021/11/11 03:54:33;;;;;;;3.33;2.63;;;21.50;54.60;;;;;;5059039;28;20398;-76
2021/11/11 03:56:59;;;;;;;2.60;2.40;;;21.50;54.60;;;;;;5058411;28;20414;-76
2021/11/11 03:59:26;;;;;;;2.30;2.10;;;21.50;54.60;;;;;;5059190;28;20446;-76
2021/11/11 04:01:54;;;;;;;3.07;2.67;;;21.50;54.60;;;;;;5058923;28;20195;-76
2021/11/11 04:04:20;;;;;;;3.30;3.00;;;21.50;54.60;;;;;;5058732;28;20434;-75
2021/11/11 04:06:47;;;;;;;3.03;2.73;;;21.50;54.60;;;;;;5041768;28;20414;-76
2021/11/11 04:09:13;;;;;;;4.23;3.07;;;21.50;54.60;;;;;;5058276;28;20406;-76
2021/11/11 04:11:38;;;;;;;4.00;2.90;;;21.50;54.60;;;;;;5058748;28;20457;-76
2021/11/11 04:14:05;;;;;;;2.90;2.70;;;21.50;54.60;;;;;;5041401;28;20174;-76
2021/11/11 04:16:33;;;;;;;2.60;2.40;;;21.50;54.60;;;;;;5040222;28;20167;-76
2021/11/11 04:18:59;;;;;;;3.50;3.30;;;21.50;54.60;;;;;;5058282;28;20414;-76
2021/11/11 04:21:25;;;;;;;4.03;2.97;;;21.50;54.60;;;;;;5058144;28;20458;-76
2021/11/11 04:23:52;;;;;;;3.40;2.53;;;21.50;54.60;;;;;;5041532;28;20444;-76
2021/11/11 04:31:20;;;;;;;3.93;2.77;;;21.50;54.60;;;;;;5061302;28;20402;-76
2021/11/11 04:33:47;;;;;;;3.90;3.20;;;21.50;54.60;;;;;;5061316;28;20401;-76
2021/11/11 04:36:34;;;;;;;3.13;2.63;;;21.50;54.60;;;;;;5061755;28;20426;-75
2021/11/11 04:40:14;;;;;;;2.80;2.50;;;21.50;54.60;;;;;;5042236;28;20924;-76
2021/11/11 04:42:13;;;;;;;3.77;3.37;;;21.40;54.60;;;;;;5053093;28;20465;-76
2021/11/11 04:50:04;;;;;;;3.30;3.00;;;21.40;54.10;;;;;;5061660;28;20156;-76
2021/11/11 05:01:10;;;;;;;3.70;3.10;;;21.40;54.30;;;;;;5061204;28;20473;-76
2021/11/11 05:03:37;;;;;;;4.43;3.43;;;21.40;54.40;;;;;;5060870;28;20482;-78
2021/11/11 05:06:03;;;;;;;3.43;2.70;;;21.30;54.40;;;;;;5038713;28;20411;-75
2021/11/11 05:08:29;;;;;;;3.50;3.20;;;21.30;54.40;;;;;;5039286;28;20478;-76
2021/11/11 05:10:56;;;;;;;3.40;3.10;;;21.30;54.40;;;;;;5042707;28;20437;-75
2021/11/11 05:13:22;;;;;;;3.07;2.87;;;21.30;54.40;;;;;;5059706;28;20457;-75
2021/11/11 05:16:04;;;;;;;3.20;2.90;;;21.30;54.40;;;;;;5058521;28;20441;-76
2021/11/11 05:18:29;;;;;;;3.70;3.07;;;21.40;54.50;;;;;;5042161;28;20395;-76
2021/11/11 05:20:55;;;;;;;3.00;2.70;;;21.30;54.40;;;;;;5059015;28;21200;-76
2021/11/11 05:23:22;;;;;;;3.30;3.00;;;21.30;54.40;;;;;;5039480;28;20242;-77
2021/11/11 05:25:48;;;;;;;5.20;3.17;;;21.30;54.40;;;;;;5059334;28;20191;-76
2021/11/11 05:28:14;;;;;;;4.00;2.90;;;21.30;54.40;;;;;;5057885;28;20418;-77
2021/11/11 05:30:40;;;;;;;3.60;3.27;;;21.30;54.40;;;;;;5042058;28;20402;-76
2021/11/11 05:33:05;;;;;;;4.10;3.50;;;21.30;54.40;;;;;;5055783;28;20184;-75
2021/11/11 05:35:31;;;;;;;3.00;2.70;;;21.30;54.40;;;;;;5056680;28;20187;-76
2021/11/11 05:37:57;;;;;;;3.47;3.10;;;21.30;54.40;;;;;;5038538;28;20214;-76
2021/11/11 05:40:23;;;;;;;2.90;2.70;;;21.40;54.40;;;;;;5038732;28;20160;-76
2021/11/11 05:42:49;;;;;;;2.80;2.60;;;21.30;54.40;;;;;;5055683;28;20214;-77
2021/11/11 05:45:16;;;;;;;3.03;2.60;;;21.40;54.40;;;;;;5056121;28;20496;-75
2021/11/11 05:47:43;;;;;;;3.77;2.90;;;21.40;54.40;;;;;;5036651;28;20404;-77
2021/11/11 05:50:10;;;;;;;3.43;2.70;;;21.40;54.40;;;;;;5054989;28;20418;-77
2021/11/11 05:52:36;;;;;;;2.80;2.60;;;21.40;54.40;;;;;;5056715;28;20414;-77
2021/11/11 05:55:03;;;;;;;4.27;2.70;;;21.40;54.40;;;;;;5039559;28;20425;-76
2021/11/11 05:57:30;;;;;;;3.47;2.80;;;21.40;54.40;;;;;;5056100;28;20180;-76
2021/11/11 05:59:56;;;;;;;3.17;2.73;;;21.40;54.40;;;;;;5027212;28;20442;-75
2021/11/11 06:02:21;;;;;;;4.10;3.33;;;21.40;54.40;;;;;;5044875;28;20509;-80
2021/11/11 06:08:09;;;;;;;3.50;3.20;;;21.40;54.20;;;;;;5042130;28;20214;-75
2021/11/11 06:10:35;;;;;;;4.00;3.50;;;21.40;54.30;;;;;;5029883;28;20423;-75
2021/11/11 06:13:01;;;;;;;2.83;2.63;;;21.40;54.20;;;;;;5028605;28;20175;-75
2021/11/11 06:15:26;;;;;;;3.10;2.80;;;21.40;54.20;;;;;;5010786;28;20259;-75
2021/11/11 06:17:55;;;;;;;3.10;2.80;;;21.40;54.20;;;;;;5044923;28;20167;-76
2021/11/11 06:20:30;;;;;;;3.27;2.80;;;21.40;54.20;;;;;;5045833;28;20175;-75
2021/11/11 06:22:58;;;;;;;3.67;2.80;;;21.50;54.20;;;;;;5045925;28;20446;-75
2021/11/11 06:25:25;;;;;;;3.57;3.23;;;21.50;54.30;;;;;;5027448;28;20418;-75
2021/11/11 06:27:50;;;;;;;5.53;3.40;;;21.50;54.30;;;;;;5045484;28;20402;-76
2021/11/11 06:30:16;;;;;;;2.97;2.77;;;21.50;54.30;;;;;;5045358;28;20903;-75
2021/11/11 06:32:42;;;;;;;3.70;3.40;;;21.50;54.30;;;;;;5027418;28;20176;-77
2021/11/11 06:35:09;;;;;;;3.33;3.03;;;21.50;54.30;;;;;;5045475;28;20184;-76
2021/11/11 06:37:36;;;;;;;4.40;3.20;;;21.50;54.30;;;;;;5024701;28;20175;-75
2021/11/11 06:40:05;;;;;;;4.20;2.93;;;21.50;54.30;;;;;;5025988;28;20417;-76
2021/11/11 06:42:30;;;;;;;3.63;3.23;;;21.50;54.30;;;;;;5045211;28;20529;-75
2021/11/11 06:44:57;;;;;;;5.10;3.00;;;21.50;54.40;;;;;;5044805;28;20414;-75
2021/11/11 06:47:23;;;;;;;3.23;2.80;;;21.50;54.40;;;;;;5045230;28;20176;-75
2021/11/11 06:49:49;;;;;;;4.23;3.20;;;21.50;54.40;;;;;;5027009;28;20506;-76
2021/11/11 06:52:14;;;;;;;4.23;3.60;;;21.50;54.40;;;;;;5026031;28;20446;-76
2021/11/11 06:54:41;;;;;;;4.73;3.43;;;21.50;54.40;;;;;;5026814;28;20175;-75
2021/11/11 06:57:08;;;;;;;5.70;2.83;;;21.50;54.40;;;;;;5027752;28;20650;-77
2021/11/11 06:59:34;;;;;;;3.23;2.93;;;21.50;54.40;;;;;;5044779;28;20418;-76
2021/11/11 07:02:00;;;;;;;3.73;2.87;;;21.50;54.40;;;;;;5026966;28;20477;-74
2021/11/11 07:04:26;;;;;;;3.00;2.63;;;21.50;54.40;;;;;;5024739;28;20191;-74
2021/11/11 07:06:53;;;;;;;3.07;2.87;;;21.50;54.40;;;;;;5022813;28;20642;-74
2021/11/11 07:09:19;;;;;;;3.40;2.90;;;21.50;54.40;;;;;;5044985;28;20437;-74
2021/11/11 07:11:44;;;;;;;3.27;2.90;;;21.50;54.40;;;;;;5045432;28;20429;-74
2021/11/11 07:14:10;;;;;;;3.07;2.77;;;21.50;54.30;;;;;;5028050;28;20406;-74
2021/11/11 07:16:36;;;;;;;2.80;2.47;;;21.50;54.30;;;;;;5045109;28;20176;-75
2021/11/11 07:19:02;;;;;;;3.57;3.27;;;21.50;54.30;;;;;;5045291;28;20187;-75
2021/11/11 07:21:29;;;;;;;3.83;2.87;;;21.50;54.30;;;;;;5044872;28;20228;-75
2021/11/11 07:23:55;;;;;;;3.20;2.90;;;21.50;54.20;;;;;;5027188;28;20415;-75
2021/11/11 07:26:33;;;;;;;2.93;2.67;;;21.50;54.20;;;;;;5045202;28;20770;-75
2021/11/11 07:28:59;;;;;;;3.30;2.43;;;21.60;54.30;;;;;;5044596;28;20406;-76
2021/11/11 07:31:25;;;;;;;3.93;3.10;;;21.50;54.20;;;;;;5045131;28;20434;-75
2021/11/11 07:33:53;;;;;;;3.23;2.93;;;21.50;54.20;;;;;;5027946;28;20183;-75
2021/11/11 07:36:19;;;;;;;5.20;2.53;;;21.50;54.20;;;;;;5028264;28;20427;-75
2021/11/11 07:38:52;;;;;;;4.13;2.90;;;21.50;54.20;;;;;;5045244;28;20486;-75
2021/11/11 07:41:18;;;;;;;3.70;3.03;;;21.60;54.30;;;;;;5045972;28;20476;-75
2021/11/11 07:43:44;;;;;;;3.00;2.70;;;21.60;54.30;;;;;;5027724;28;20434;-75
2021/11/11 07:46:10;;;;;;;3.50;2.83;;;21.60;54.20;;;;;;5045628;28;20407;-75
2021/11/11 07:48:35;;;;;;;50.27;6.07;;;21.60;54.20;;;;;;5045869;28;20172;-75
2021/11/11 07:54:23;;;;;;;7.50;3.40;;;21.60;54.20;;;;;;5044921;28;20673;-76
2021/11/11 07:56:49;;;;;;;5.43;3.27;;;21.60;54.20;;;;;;5045813;28;20403;-75
2021/11/11 07:59:14;;;;;;;3.73;3.43;;;21.60;54.10;;;;;;5045508;28;20168;-75
2021/11/11 08:01:40;;;;;;;8.33;3.93;;;21.60;54.10;;;;;;5027685;28;20207;-75
2021/11/11 08:04:06;;;;;;;5.60;3.00;;;21.60;54.10;;;;;;5026329;28;20182;-75
2021/11/11 08:06:31;;;;;;;4.50;3.10;;;21.60;54.20;;;;;;5045336;28;20159;-75
2021/11/11 08:08:57;;;;;;;3.60;3.20;;;21.60;54.10;;;;;;5045436;28;20176;-75
2021/11/11 08:11:23;;;;;;;7.60;3.23;;;21.60;54.10;;;;;;5045523;28;20175;-75
2021/11/11 08:13:50;;;;;;;3.17;2.87;;;21.60;54.10;;;;;;5046023;28;20198;-76
2021/11/11 08:16:16;;;;;;;4.30;3.70;;;21.60;54.20;;;;;;5024391;28;20426;-77
2021/11/11 08:18:42;;;;;;;3.30;2.70;;;21.60;54.20;;;;;;5025526;28;20422;-76
2021/11/11 08:21:08;;;;;;;4.87;3.50;;;21.60;54.20;;;;;;5025220;28;20525;-75
2021/11/11 08:23:35;;;;;;;4.80;3.50;;;21.60;54.10;;;;;;5007860;28;20419;-75
2021/11/11 08:26:04;;;;;;;7.70;3.53;;;21.60;54.10;;;;;;5008200;28;20665;-76
2021/11/11 08:28:31;;;;;;;4.00;3.10;;;21.60;54.20;;;;;;5025047;28;20973;-75
2021/11/11 08:30:57;;;;;;;4.07;3.07;;;21.60;54.20;;;;;;5023779;28;20815;-76
2021/11/11 08:33:22;;;;;;;2.90;2.60;;;21.60;54.20;;;;;;5024668;28;20507;-75
2021/11/11 08:35:49;;;;;;;3.90;3.53;;;21.60;54.20;;;;;;5006722;28;20183;-76
2021/11/11 08:38:15;;;;;;;7.13;3.50;;;21.60;54.10;;;;;;5024678;28;20200;-75
2021/11/11 08:40:41;;;;;;;3.57;3.27;;;21.60;54.10;;;;;;5006360;28;20487;-76
2021/11/11 08:46:29;;;;;;;10.03;3.27;;;21.60;54.00;;;;;;5024291;28;20893;-75
2021/11/11 08:48:55;;;;;;;6.00;2.57;;;21.60;54.10;;;;;;5024554;28;20412;-75
2021/11/11 08:51:21;;;;;;;2.83;2.57;;;21.60;54.10;;;;;;5024636;28;20180;-76
2021/11/11 08:53:47;;;;;;;5.97;3.37;;;21.60;54.00;;;;;;5024720;28;20391;-76
2021/11/11 08:56:12;;;;;;;3.70;3.33;;;21.60;54.00;;;;;;5007142;28;20400;-76
2021/11/11 08:58:39;;;;;;;6.73;3.07;;;21.70;54.10;;;;;;5024662;28;20407;-75
2021/11/11 09:01:06;;;;;;;3.40;2.80;;;21.70;54.10;;;;;;5006645;28;20197;-75
2021/11/11 09:03:35;;;;;;;3.40;2.60;;;21.70;54.00;;;;;;5006544;28;20411;-75
2021/11/11 09:06:02;;;;;;;7.40;3.57;;;21.70;54.00;;;;;;5018288;28;20788;-75
2021/11/11 09:08:29;;;;;;;3.97;3.40;;;21.70;54.00;;;;;;5026205;28;20792;-75
2021/11/11 09:10:55;;;;;;;3.50;2.90;;;21.70;54.00;;;;;;5025986;28;20422;-75
2021/11/11 09:13:21;;;;;;;3.80;3.20;;;21.80;54.10;;;;;;5025738;28;20415;-76
2021/11/11 09:15:46;;;;;;;4.60;3.23;;;21.70;54.00;;;;;;5027885;28;20190;-75
2021/11/11 09:18:12;;;;;;;3.20;2.90;;;21.80;54.00;;;;;;5028425;28;20199;-75
2021/11/11 09:20:39;;;;;;;4.00;3.23;;;21.80;54.00;;;;;;5029399;28;20267;-75
2021/11/11 09:29:49;;;;;;;10.67;8.50;;;21.80;54.00;;;;;;5046766;28;20407;-75
2021/11/11 09:32:15;;;;;;;5.80;4.43;;;21.80;54.00;;;;;;5029974;28;20422;-75
2021/11/11 09:34:41;;;;;;;4.20;3.80;;;21.80;54.00;;;;;;5029340;28;20171;-75
2021/11/11 09:37:07;;;;;;;5.00;4.50;;;21.80;54.00;;;;;;5029320;28;20414;-75
2021/11/11 09:39:32;;;;;;;7.33;4.87;;;21.80;54.00;;;;;;5029475;28;20190;-75
2021/11/11 09:42:00;;;;;;;7.00;5.37;;;21.80;54.00;;;;;;5028395;28;20242;-75
2021/11/11 09:44:27;;;;;;;7.50;5.30;;;21.80;54.00;;;;;;5046391;28;20195;-75
2021/11/11 09:46:54;;;;;;;5.33;4.40;;;21.80;54.00;;;;;;5046063;28;20406;-75
2021/11/11 09:49:21;;;;;;;6.20;4.37;;;21.80;53.90;;;;;;5028166;28;20457;-75
2021/11/11 09:51:48;;;;;;;5.47;4.90;;;21.80;53.90;;;;;;5046483;28;20407;-75
2021/11/11 10:00:03;;;;;;;5.10;4.60;;;21.90;53.90;;;;;;5046893;28;20263;-73
2021/11/11 10:02:29;;;;;;;5.40;4.67;;;21.80;53.90;;;;;;5028582;28;20546;-76
2021/11/11 10:04:54;;;;;;;7.50;4.27;;;21.80;53.90;;;;;;5047040;28;20410;-75
2021/11/11 10:07:20;;;;;;;4.77;4.23;;;21.80;53.90;;;;;;5028792;28;20239;-75
2021/11/11 10:09:46;;;;;;;4.77;4.37;;;21.80;53.90;;;;;;5046045;28;20167;-75
2021/11/11 10:12:19;;;;;;;5.57;4.50;;;21.80;53.90;;;;;;5028473;28;20168;-76
2021/11/11 10:14:47;;;;;;;5.80;4.47;;;21.90;53.90;;;;;;5028344;28;20203;-75
2021/11/11 10:17:14;;;;;;;5.10;4.60;;;21.90;53.90;;;;;;5029229;28;20421;-75
2021/11/11 10:19:44;;;;;;;8.40;4.90;;;21.90;53.90;;;;;;5028431;28;20418;-75
2021/11/11 10:22:36;;;;;;;5.20;4.30;;;21.90;53.90;;;;;;5028124;28;20533;-76
2021/11/11 10:25:06;;;;;;;4.30;3.77;;;21.90;53.90;;;;;;5028263;28;20501;-75
2021/11/11 10:27:43;;;;;;;4.90;4.00;;;21.90;53.90;;;;;;5045874;28;20414;-75
2021/11/11 10:30:09;;;;;;;5.07;4.57;;;21.90;53.90;;;;;;5045787;28;20395;-75
2021/11/11 10:32:39;;;;;;;6.33;4.50;;;21.90;53.90;;;;;;5046030;28;20943;-75
2021/11/11 10:35:18;;;;;;;6.00;4.50;;;21.90;53.90;;;;;;5045915;28;20461;-76
2021/11/11 10:37:59;;;;;;;5.57;4.70;;;21.90;53.90;;;;;;5027911;28;20441;-75
2021/11/11 10:40:32;;;;;;;6.33;4.57;;;21.90;53.90;;;;;;5027889;28;20446;-76
2021/11/11 10:43:03;;;;;;;5.03;3.90;;;21.90;53.90;;;;;;5027116;28;20407;-75
2021/11/11 10:45:31;;;;;;;5.20;4.67;;;21.90;53.90;;;;;;5044859;28;20433;-75
2021/11/11 10:48:00;;;;;;;5.60;4.23;;;21.90;53.90;;;;;;5027635;28;20418;-75
2021/11/11 10:50:39;;;;;;;4.90;3.63;;;21.90;53.90;;;;;;5045264;28;20403;-75
2021/11/11 10:53:07;;;;;;;4.07;3.67;;;21.90;53.90;;;;;;5027560;28;20410;-76
2021/11/11 10:55:38;;;;;;;4.10;3.67;;;21.90;53.80;;;;;;5027924;28;20437;-76
2021/11/11 10:58:14;;;;;;;4.37;3.70;;;22.00;53.90;;;;;;5046007;28;20391;-76
2021/11/11 11:01:09;;;;;;;6.30;3.90;;;22.00;53.90;;;;;;5027884;28;20413;-75
2021/11/11 11:03:44;;;;;;;4.63;4.10;;;22.00;53.90;;;;;;5028008;28;20414;-75
2021/11/11 11:06:13;;;;;;;4.37;3.97;;;22.00;53.90;;;;;;5046989;28;20732;-76
2021/11/11 11:08:42;;;;;;;4.57;4.17;;;22.00;53.90;;;;;;5046130;28;20410;-75
2021/11/11 11:11:12;;;;;;;5.70;4.80;;;22.00;53.90;;;;;;5027901;28;20414;-75
2021/11/11 11:13:41;;;;;;;4.67;4.27;;;22.00;53.90;;;;;;5044907;28;20493;-75
2021/11/11 11:16:10;;;;;;;6.90;4.03;;;22.00;53.80;;;;;;5027506;28;20433;-75
2021/11/11 11:18:58;;;;;;;5.07;3.80;;;22.10;53.90;;;;;;5028124;28;20427;-74
2021/11/11 11:21:40;;;;;;;4.00;3.60;;;22.10;53.90;;;;;;5027412;28;20450;-74
2021/11/11 11:24:15;;;;;;;5.57;4.73;;;22.10;53.90;;;;;;5045211;28;20436;-75
2021/11/11 11:26:57;;;;;;;4.40;4.00;;;22.10;53.90;;;;;;5028617;28;20869;-76
2021/11/11 11:29:34;;;;;;;10.83;5.93;;;22.10;53.90;;;;;;5045481;28;20402;-75
2021/11/11 11:32:30;;;;;;;5.17;4.33;;;22.10;53.90;;;;;;5027896;28;20422;-75
2021/11/11 11:35:00;;;;;;;4.30;3.83;;;22.10;54.00;;;;;;5044032;28;20427;-75
2021/11/11 11:37:29;;;;;;;4.73;4.00;;;22.10;54.00;;;;;;5045501;28;20414;-76
2021/11/11 11:40:00;;;;;;;7.10;4.10;;;22.10;53.90;;;;;;5044811;28;20434;-75
2021/11/11 11:42:30;;;;;;;6.83;4.17;;;22.10;53.90;;;;;;5027812;28;20454;-76
2021/11/11 11:45:16;;;;;;;6.17;4.07;;;22.10;53.90;;;;;;5044728;28;20445;-76
2021/11/11 11:50:15;;;;;;;4.83;3.70;;;22.10;53.90;;;;;;5045115;28;20517;-75
2021/11/11 11:52:49;;;;;;;5.23;4.37;;;22.10;53.90;;;;;;5045874;28;20412;-75
2021/11/11 12:03:18;;;;;;;6.60;4.50;;;22.10;53.90;;;;;;5045208;28;20402;-75
2021/11/11 12:11:41;;;;;;;4.93;4.40;;;22.10;53.90;;;;;;5045178;28;20395;-75
2021/11/11 12:14:20;;;;;;;3.80;3.40;;;22.10;53.90;;;;;;5046299;28;20888;-75
2021/11/11 12:28:38;;;;;;;6.53;4.37;;;22.10;54.00;;;;;;5045696;28;20394;-76
2021/11/11 12:40:05;;;;;;;5.70;4.57;;;22.10;54.00;;;;;;5047300;28;20939;-76
2021/11/11 12:42:54;;;;;;;5.43;4.50;;;22.10;54.00;;;;;;5029616;28;20454;-75
2021/11/11 12:45:37;;;;;;;5.63;4.17;;;22.10;54.00;;;;;;5028676;28;20941;-76
2021/11/11 12:48:05;;;;;;;4.13;3.70;;;22.10;54.00;;;;;;5028624;28;20410;-75
2021/11/11 12:50:40;;;;;;;4.67;3.70;;;22.10;54.00;;;;;;5031078;28;20430;-76
2021/11/11 12:53:12;;;;;;;6.13;4.03;;;22.10;54.00;;;;;;5033049;28;20448;-76
2021/11/11 12:55:39;;;;;;;4.67;4.10;;;22.10;54.00;;;;;;5050591;28;20426;-76
2021/11/11 12:58:09;;;;;;;4.83;4.23;;;22.10;54.00;;;;;;5033620;28;20453;-75
2021/11/11 13:00:47;;;;;;;6.03;4.13;;;22.10;54.00;;;;;;5032883;28;20430;-75
2021/11/11 13:03:17;;;;;;;4.27;3.87;;;22.10;54.00;;;;;;5032522;28;20437;-76
2021/11/11 13:05:58;;;;;;;5.07;4.03;;;22.10;54.00;;;;;;5030856;28;20412;-76
2021/11/11 13:08:42;;;;;;;4.40;4.00;;;22.10;54.00;;;;;;5029243;28;20434;-76
2021/11/11 13:11:09;;;;;;;4.37;3.97;;;22.10;54.00;;;;;;5012802;28;20415;-75
2021/11/11 13:13:36;;;;;;;4.10;3.70;;;22.10;54.10;;;;;;5049033;28;20532;-76
2021/11/11 13:16:16;;;;;;;4.23;3.83;;;22.10;54.10;;;;;;5050711;28;20510;-75
2021/11/11 13:18:48;;;;;;;6.30;4.33;;;22.10;54.00;;;;;;5034191;28;20410;-75
2021/11/11 13:21:49;;;;;;;4.20;3.80;;;22.10;54.10;;;;;;5050730;28;20538;-75
2021/11/11 13:24:41;;;;;;;5.97;3.83;;;22.10;54.10;;;;;;5050559;28;20383;-76
2021/11/11 14:03:10;;;;;;;5.03;4.53;;;22.00;54.20;;;;;;5009713;28;20471;-75
2021/11/11 16:02:02;;;;;;;4.57;3.70;;;22.20;54.30;;;;;;5053938;28;20511;-76
2021/11/11 16:23:45;;;;;;;5.00;4.27;;;22.30;54.30;;;;;;5050826;28;20414;-77
2021/11/11 16:28:56;;;;;;;8.33;4.83;;;22.30;54.30;;;;;;5052410;28;20393;-75
2021/11/11 16:31:22;;;;;;;5.80;5.10;;;22.30;54.30;;;;;;5057424;28;20494;-77
2021/11/11 16:33:49;;;;;;;6.43;5.23;;;22.30;54.30;;;;;;5058090;28;20452;-77
2021/11/11 16:36:15;;;;;;;5.67;5.07;;;22.30;54.30;;;;;;5040626;28;20184;-78
2021/11/11 16:38:42;;;;;;;10.87;5.20;;;22.30;54.20;;;;;;5047624;28;20426;-77
2021/11/11 16:41:08;;;;;;;7.80;4.60;;;22.30;54.20;;;;;;5040555;28;20461;-76
2021/11/11 16:43:34;;;;;;;7.20;5.50;;;22.30;54.20;;;;;;5057704;28;20421;-76
2021/11/11 16:46:00;;;;;;;6.90;5.33;;;22.30;54.20;;;;;;5039434;28;20461;-76
2021/11/11 16:48:26;;;;;;;5.60;4.87;;;22.30;54.20;;;;;;5042355;28;20454;-77
2021/11/11 16:51:18;;;;;;;7.13;5.30;;;22.30;54.20;;;;;;5058445;28;20476;-77
2021/11/11 16:53:45;;;;;;;8.73;5.13;;;22.40;54.20;;;;;;5058073;28;20172;-77
2021/11/11 16:56:12;;;;;;;6.30;5.20;;;22.30;54.20;;;;;;5057075;28;20418;-77
2021/11/11 16:58:39;;;;;;;8.30;5.17;;;22.30;54.20;;;;;;5032187;28;20432;-76
2021/11/11 17:01:05;;;;;;;7.80;5.37;;;22.40;54.20;;;;;;5040411;28;20517;-76
2021/11/11 17:03:32;;;;;;;5.67;5.10;;;22.40;54.20;;;;;;5059125;28;20420;-76
2021/11/11 17:05:58;;;;;;;7.10;5.50;;;22.40;54.20;;;;;;5059962;28;20402;-76
2021/11/11 17:08:23;;;;;;;5.57;4.90;;;22.40;54.20;;;;;;5060748;28;20533;-77